sensor_id;sensor_type;location;lat;lon;timestamp;pressure;altitude;pressure_sealevel;temperature;humidity
41632;BME280;37452;51.938;4.624;2023-02-21T00:00:25;77810.63;;;-142.75;100.00
41632;BME280;37452;51.938;4.624;2023-02-21T00:03:09;77798.81;;;-142.75;100.00
41632;BME280;37452;51.938;4.624;2023-02-21T00:05:52;77802.75;;;-142.75;100.00
41632;BME280;37452;51.938;4.624;2023-02-21T00:08:36;77802.75;;;-142.75;100.00
41632;BME280;37452;51.938;4.624;2023-02-21T00:11:20;77806.69;;;-142.75;100.00
41632;BME280;37452;51.938;4.624;2023-02-21T00:14:04;77798.81;;;-142.75;100.00
41632;BME280;37452;51.938;4.624;2023-02-21T00:16:48;77788.97;;;-142.75;100.00
41632;BME280;37452;51.938;4.624;2023-02-21T00:19:32;77798.81;;;-142.75;100.00
41632;BME280;37452;51.938;4.624;2023-02-21T00:22:16;77804.72;;;-142.75;100.00
41632;BME280;37452;51.938;4.624;2023-02-21T00:25:00;77806.69;;;-142.75;100.00
41632;BME280;37452;51.938;4.624;2023-02-21T00:27:44;77816.53;;;-142.75;100.00
41632;BME280;37452;51.938;4.624;2023-02-21T00:30:28;77814.56;;;-142.75;100.00
41632;BME280;37452;51.938;4.624;2023-02-21T00:33:12;77798.81;;;-142.75;100.00
41632;BME280;37452;51.938;4.624;2023-02-21T00:35:55;77796.84;;;-142.75;100.00
41632;BME280;37452;51.938;4.624;2023-02-21T00:38:39;77806.69;;;-142.75;100.00
41632;BME280;37452;51.938;4.624;2023-02-21T00:41:23;77806.69;;;-142.75;100.00
41632;BME280;37452;51.938;4.624;2023-02-21T00:44:07;77798.81;;;-142.75;100.00
41632;BME280;37452;51.938;4.624;2023-02-21T00:46:51;77806.69;;;-142.75;100.00
41632;BME280;37452;51.938;4.624;2023-02-21T00:49:36;77810.63;;;-142.75;100.00
41632;BME280;37452;51.938;4.624;2023-02-21T00:52:20;77787.00;;;-142.75;100.00
41632;BME280;37452;51.938;4.624;2023-02-21T00:55:04;77802.75;;;-142.75;100.00
41632;BME280;37452;51.938;4.624;2023-02-21T00:57:48;77802.75;;;-142.75;100.00
41632;BME280;37452;51.938;4.624;2023-02-21T01:00:32;77806.69;;;-142.75;100.00
41632;BME280;37452;51.938;4.624;2023-02-21T01:03:16;77779.13;;;-142.75;100.00
41632;BME280;37452;51.938;4.624;2023-02-21T01:06:00;77779.13;;;-142.75;100.00
41632;BME280;37452;51.938;4.624;2023-02-21T01:08:45;77767.31;;;-142.75;100.00
41632;BME280;37452;51.938;4.624;2023-02-21T01:11:29;77777.16;;;-142.75;100.00
41632;BME280;37452;51.938;4.624;2023-02-21T01:14:13;77783.06;;;-142.75;100.00
41632;BME280;37452;51.938;4.624;2023-02-21T01:16:57;77759.44;;;-142.75;100.00
41632;BME280;37452;51.938;4.624;2023-02-21T01:19:41;77763.38;;;-142.75;100.00
41632;BME280;37452;51.938;4.624;2023-02-21T01:22:25;77763.38;;;-142.75;100.00
41632;BME280;37452;51.938;4.624;2023-02-21T01:25:09;77761.41;;;-142.75;100.00
41632;BME280;37452;51.938;4.624;2023-02-21T01:27:54;77751.56;;;-142.75;100.00
41632;BME280;37452;51.938;4.624;2023-02-21T01:30:37;77751.56;;;-142.75;100.00
41632;BME280;37452;51.938;4.624;2023-02-21T01:33:21;77757.47;;;-142.75;100.00
41632;BME280;37452;51.938;4.624;2023-02-21T01:36:06;77743.69;;;-142.75;100.00
41632;BME280;37452;51.938;4.624;2023-02-21T01:38:50;77751.56;;;-142.75;100.00
41632;BME280;37452;51.938;4.624;2023-02-21T01:41:34;77751.56;;;-142.75;100.00
41632;BME280;37452;51.938;4.624;2023-02-21T01:44:34;77743.69;;;-142.75;100.00
41632;BME280;37452;51.938;4.624;2023-02-21T01:47:19;77757.47;;;-142.75;100.00
41632;BME280;37452;51.938;4.624;2023-02-21T01:50:17;77747.63;;;-142.75;100.00
41632;BME280;37452;51.938;4.624;2023-02-21T01:53:06;77753.53;;;-142.75;100.00
41632;BME280;37452;51.938;4.624;2023-02-21T01:55:53;77747.63;;;-142.75;100.00
41632;BME280;37452;51.938;4.624;2023-02-21T01:58:38;77749.59;;;-142.75;100.00
41632;BME280;37452;51.938;4.624;2023-02-21T02:01:37;77733.84;;;-142.75;100.00
41632;BME280;37452;51.938;4.624;2023-02-21T02:04:23;77731.88;;;-142.75;100.00
41632;BME280;37452;51.938;4.624;2023-02-21T02:07:08;77731.88;;;-142.75;100.00
41632;BME280;37452;51.938;4.624;2023-02-21T02:09:52;77733.84;;;-142.75;100.00
41632;BME280;37452;51.938;4.624;2023-02-21T02:39:59;77690.50;;;-142.75;100.00
41632;BME280;37452;51.938;4.624;2023-02-21T02:43:04;77692.47;;;-142.75;100.00
41632;BME280;37452;51.938;4.624;2023-02-21T02:45:48;77688.53;;;-142.75;100.00
41632;BME280;37452;51.938;4.624;2023-02-21T02:48:21;77704.28;;;-142.75;100.00
41632;BME280;37452;51.938;4.624;2023-02-21T02:50:48;77704.28;;;-142.75;100.00
41632;BME280;37452;51.938;4.624;2023-02-21T02:53:17;77706.25;;;-142.75;100.00
41632;BME280;37452;51.938;4.624;2023-02-21T02:55:48;77696.41;;;-142.75;100.00
41632;BME280;37452;51.938;4.624;2023-02-21T02:58:16;77700.34;;;-142.75;100.00
41632;BME280;37452;51.938;4.624;2023-02-21T03:00:45;77702.31;;;-142.75;100.00
41632;BME280;37452;51.938;4.624;2023-02-21T03:06:18;77692.47;;;-142.75;100.00
41632;BME280;37452;51.938;4.624;2023-02-21T03:08:56;77688.53;;;-142.75;100.00
41632;BME280;37452;51.938;4.624;2023-02-21T03:11:26;77696.41;;;-142.75;100.00
41632;BME280;37452;51.938;4.624;2023-02-21T03:14:00;77696.41;;;-142.75;100.00
41632;BME280;37452;51.938;4.624;2023-02-21T03:16:36;77692.47;;;-142.75;100.00
41632;BME280;37452;51.938;4.624;2023-02-21T03:19:13;77684.59;;;-142.75;100.00
41632;BME280;37452;51.938;4.624;2023-02-21T03:21:45;77690.50;;;-142.75;100.00
41632;BME280;37452;51.938;4.624;2023-02-21T03:24:13;77692.47;;;-142.75;100.00
41632;BME280;37452;51.938;4.624;2023-02-21T03:26:42;77686.56;;;-142.75;100.00
41632;BME280;37452;51.938;4.624;2023-02-21T03:29:09;77704.28;;;-142.75;100.00
41632;BME280;37452;51.938;4.624;2023-02-21T03:31:43;77692.47;;;-142.75;100.00
41632;BME280;37452;51.938;4.624;2023-02-21T03:34:09;77682.63;;;-142.75;100.00
41632;BME280;37452;51.938;4.624;2023-02-21T03:36:36;77688.53;;;-142.75;100.00
41632;BME280;37452;51.938;4.624;2023-02-21T03:39:02;77702.31;;;-142.75;100.00
41632;BME280;37452;51.938;4.624;2023-02-21T03:41:27;77692.47;;;-142.75;100.00
41632;BME280;37452;51.938;4.624;2023-02-21T03:43:52;77686.56;;;-142.75;100.00
41632;BME280;37452;51.938;4.624;2023-02-21T03:46:18;77688.53;;;-142.75;100.00
41632;BME280;37452;51.938;4.624;2023-02-21T03:48:43;77682.63;;;-142.75;100.00
41632;BME280;37452;51.938;4.624;2023-02-21T03:51:09;77684.59;;;-142.75;100.00
41632;BME280;37452;51.938;4.624;2023-02-21T03:53:34;77684.59;;;-142.75;100.00
41632;BME280;37452;51.938;4.624;2023-02-21T03:55:59;77686.56;;;-142.75;100.00
41632;BME280;37452;51.938;4.624;2023-02-21T03:58:25;77684.59;;;-142.75;100.00
41632;BME280;37452;51.938;4.624;2023-02-21T04:00:50;77684.59;;;-142.75;100.00
41632;BME280;37452;51.938;4.624;2023-02-21T04:03:17;77678.69;;;-142.75;100.00
41632;BME280;37452;51.938;4.624;2023-02-21T04:05:43;77672.78;;;-142.75;100.00
41632;BME280;37452;51.938;4.624;2023-02-21T04:08:08;77660.97;;;-142.75;100.00
41632;BME280;37452;51.938;4.624;2023-02-21T04:10:33;77678.69;;;-142.75;100.00
41632;BME280;37452;51.938;4.624;2023-02-21T04:12:58;77664.91;;;-142.75;100.00
41632;BME280;37452;51.938;4.624;2023-02-21T04:15:24;77684.59;;;-142.75;100.00
41632;BME280;37452;51.938;4.624;2023-02-21T04:17:49;77666.88;;;-142.75;100.00
41632;BME280;37452;51.938;4.624;2023-02-21T04:20:14;77660.97;;;-142.75;100.00
41632;BME280;37452;51.938;4.624;2023-02-21T04:22:40;77660.97;;;-142.75;100.00
41632;BME280;37452;51.938;4.624;2023-02-21T04:25:06;77657.03;;;-142.75;100.00
41632;BME280;37452;51.938;4.624;2023-02-21T04:27:31;77662.94;;;-142.75;100.00
41632;BME280;37452;51.938;4.624;2023-02-21T04:29:59;77672.78;;;-142.75;100.00
41632;BME280;37452;51.938;4.624;2023-02-21T04:32:24;77686.56;;;-142.75;100.00
41632;BME280;37452;51.938;4.624;2023-02-21T04:34:49;77674.75;;;-142.75;100.00
41632;BME280;37452;51.938;4.624;2023-02-21T04:37:14;77674.75;;;-142.75;100.00
41632;BME280;37452;51.938;4.624;2023-02-21T04:39:40;77704.28;;;-142.75;100.00
41632;BME280;37452;51.938;4.624;2023-02-21T04:42:05;77694.44;;;-142.75;100.00
41632;BME280;37452;51.938;4.624;2023-02-21T04:44:30;77684.59;;;-142.75;100.00
41632;BME280;37452;51.938;4.624;2023-02-21T04:46:56;77676.72;;;-142.75;100.00
41632;BME280;37452;51.938;4.624;2023-02-21T04:49:21;77672.78;;;-142.75;100.00
41632;BME280;37452;51.938;4.624;2023-02-21T04:51:50;77672.78;;;-142.75;100.00
41632;BME280;37452;51.938;4.624;2023-02-21T04:54:15;77647.19;;;-142.75;100.00
41632;BME280;37452;51.938;4.624;2023-02-21T04:56:40;77651.13;;;-142.75;100.00
41632;BME280;37452;51.938;4.624;2023-02-21T04:59:06;77651.13;;;-142.75;100.00
41632;BME280;37452;51.938;4.624;2023-02-21T05:01:31;77653.09;;;-142.75;100.00
41632;BME280;37452;51.938;4.624;2023-02-21T05:03:58;77649.16;;;-142.75;100.00
41632;BME280;37452;51.938;4.624;2023-02-21T05:06:24;77649.16;;;-142.75;100.00
41632;BME280;37452;51.938;4.624;2023-02-21T05:08:50;77657.03;;;-142.75;100.00
41632;BME280;37452;51.938;4.624;2023-02-21T05:11:17;77649.16;;;-142.75;100.00
41632;BME280;37452;51.938;4.624;2023-02-21T05:13:43;77649.16;;;-142.75;100.00
41632;BME280;37452;51.938;4.624;2023-02-21T05:16:08;77662.94;;;-142.75;100.00
41632;BME280;37452;51.938;4.624;2023-02-21T05:18:34;77660.97;;;-142.75;100.00
41632;BME280;37452;51.938;4.624;2023-02-21T05:21:01;77672.78;;;-142.75;100.00
41632;BME280;37452;51.938;4.624;2023-02-21T05:23:27;77660.97;;;-142.75;100.00
41632;BME280;37452;51.938;4.624;2023-02-21T05:26:18;77645.22;;;-142.75;100.00
41632;BME280;37452;51.938;4.624;2023-02-21T05:28:43;77653.09;;;-142.75;100.00
41632;BME280;37452;51.938;4.624;2023-02-21T05:31:09;77653.09;;;-142.75;100.00
41632;BME280;37452;51.938;4.624;2023-02-21T05:33:34;77660.97;;;-142.75;100.00
41632;BME280;37452;51.938;4.624;2023-02-21T05:35:59;77647.19;;;-142.75;100.00
41632;BME280;37452;51.938;4.624;2023-02-21T05:38:25;77645.22;;;-142.75;100.00
41632;BME280;37452;51.938;4.624;2023-02-21T05:40:51;77657.03;;;-142.75;100.00
41632;BME280;37452;51.938;4.624;2023-02-21T05:43:18;77647.19;;;-142.75;100.00
41632;BME280;37452;51.938;4.624;2023-02-21T05:45:43;77649.16;;;-142.75;100.00
41632;BME280;37452;51.938;4.624;2023-02-21T05:48:09;77645.22;;;-142.75;100.00
41632;BME280;37452;51.938;4.624;2023-02-21T05:50:34;77643.25;;;-142.75;100.00
41632;BME280;37452;51.938;4.624;2023-02-21T05:53:00;77659.00;;;-142.75;100.00
41632;BME280;37452;51.938;4.624;2023-02-21T05:55:26;77653.09;;;-142.75;100.00
41632;BME280;37452;51.938;4.624;2023-02-21T05:57:52;77645.22;;;-142.75;100.00
41632;BME280;37452;51.938;4.624;2023-02-21T06:00:20;77637.34;;;-142.75;100.00
41632;BME280;37452;51.938;4.624;2023-02-21T06:02:48;77649.16;;;-142.75;100.00
41632;BME280;37452;51.938;4.624;2023-02-21T06:05:15;77647.19;;;-142.75;100.00
41632;BME280;37452;51.938;4.624;2023-02-21T06:07:40;77639.31;;;-142.75;100.00
41632;BME280;37452;51.938;4.624;2023-02-21T06:10:05;77641.28;;;-142.75;100.00
41632;BME280;37452;51.938;4.624;2023-02-21T06:12:31;77641.28;;;-142.75;100.00
41632;BME280;37452;51.938;4.624;2023-02-21T06:14:56;77645.22;;;-142.75;100.00
41632;BME280;37452;51.938;4.624;2023-02-21T06:17:21;77660.97;;;-142.75;100.00
41632;BME280;37452;51.938;4.624;2023-02-21T06:19:47;77645.22;;;-142.75;100.00
41632;BME280;37452;51.938;4.624;2023-02-21T06:22:12;77676.72;;;-142.75;100.00
41632;BME280;37452;51.938;4.624;2023-02-21T06:24:38;77645.22;;;-142.75;100.00
41632;BME280;37452;51.938;4.624;2023-02-21T06:27:03;77649.16;;;-142.75;100.00
41632;BME280;37452;51.938;4.624;2023-02-21T06:29:29;77653.09;;;-142.75;100.00
41632;BME280;37452;51.938;4.624;2023-02-21T06:31:58;77641.28;;;-142.75;100.00
41632;BME280;37452;51.938;4.624;2023-02-21T06:34:25;77655.06;;;-142.75;100.00
41632;BME280;37452;51.938;4.624;2023-02-21T06:36:52;77660.97;;;-142.75;100.00
41632;BME280;37452;51.938;4.624;2023-02-21T06:39:17;77668.84;;;-142.75;100.00
41632;BME280;37452;51.938;4.624;2023-02-21T06:41:42;77645.22;;;-142.75;100.00
41632;BME280;37452;51.938;4.624;2023-02-21T06:44:08;77649.16;;;-142.75;100.00
41632;BME280;37452;51.938;4.624;2023-02-21T06:46:33;77643.25;;;-142.75;100.00
41632;BME280;37452;51.938;4.624;2023-02-21T06:49:01;77649.16;;;-142.75;100.00
41632;BME280;37452;51.938;4.624;2023-02-21T06:51:26;77674.75;;;-142.75;100.00
41632;BME280;37452;51.938;4.624;2023-02-21T06:53:54;77666.88;;;-142.75;100.00
41632;BME280;37452;51.938;4.624;2023-02-21T06:56:19;77657.03;;;-142.75;100.00
41632;BME280;37452;51.938;4.624;2023-02-21T06:58:44;77649.16;;;-142.75;100.00
41632;BME280;37452;51.938;4.624;2023-02-21T07:01:10;77649.16;;;-142.75;100.00
41632;BME280;37452;51.938;4.624;2023-02-21T07:03:38;77639.31;;;-142.75;100.00
41632;BME280;37452;51.938;4.624;2023-02-21T07:06:04;77647.19;;;-142.75;100.00
41632;BME280;37452;51.938;4.624;2023-02-21T07:08:30;77655.06;;;-142.75;100.00
41632;BME280;37452;51.938;4.624;2023-02-21T07:10:55;77657.03;;;-142.75;100.00
41632;BME280;37452;51.938;4.624;2023-02-21T07:13:20;77657.03;;;-142.75;100.00
41632;BME280;37452;51.938;4.624;2023-02-21T07:15:46;77670.81;;;-142.75;100.00
41632;BME280;37452;51.938;4.624;2023-02-21T07:18:11;77668.84;;;-142.75;100.00
41632;BME280;37452;51.938;4.624;2023-02-21T07:20:37;77645.22;;;-142.75;100.00
41632;BME280;37452;51.938;4.624;2023-02-21T07:23:02;77649.16;;;-142.75;100.00
41632;BME280;37452;51.938;4.624;2023-02-21T07:25:27;77649.16;;;-142.75;100.00
41632;BME280;37452;51.938;4.624;2023-02-21T07:27:54;77653.09;;;-142.75;100.00
41632;BME280;37452;51.938;4.624;2023-02-21T07:30:19;77645.22;;;-142.75;100.00
41632;BME280;37452;51.938;4.624;2023-02-21T07:32:45;77629.47;;;-142.75;100.00
41632;BME280;37452;51.938;4.624;2023-02-21T07:35:11;77641.28;;;-142.75;100.00
41632;BME280;37452;51.938;4.624;2023-02-21T07:37:36;77643.25;;;-142.75;100.00
41632;BME280;37452;51.938;4.624;2023-02-21T07:40:02;77649.16;;;-142.75;100.00
41632;BME280;37452;51.938;4.624;2023-02-21T07:42:28;77649.16;;;-142.75;100.00
41632;BME280;37452;51.938;4.624;2023-02-21T07:44:57;77649.16;;;-142.75;100.00
41632;BME280;37452;51.938;4.624;2023-02-21T07:47:25;77633.41;;;-142.75;100.00
41632;BME280;37452;51.938;4.624;2023-02-21T07:49:51;77641.28;;;-142.75;100.00
41632;BME280;37452;51.938;4.624;2023-02-21T07:52:18;77641.28;;;-142.75;100.00
41632;BME280;37452;51.938;4.624;2023-02-21T07:54:44;77643.25;;;-142.75;100.00
41632;BME280;37452;51.938;4.624;2023-02-21T07:57:10;77643.25;;;-142.75;100.00
41632;BME280;37452;51.938;4.624;2023-02-21T07:59:35;77649.16;;;-142.75;100.00
41632;BME280;37452;51.938;4.624;2023-02-21T08:02:01;77641.28;;;-142.75;100.00
41632;BME280;37452;51.938;4.624;2023-02-21T08:04:26;77651.13;;;-142.75;100.00
41632;BME280;37452;51.938;4.624;2023-02-21T08:06:58;77643.25;;;-142.75;100.00
41632;BME280;37452;51.938;4.624;2023-02-21T08:09:24;77649.16;;;-142.75;100.00
41632;BME280;37452;51.938;4.624;2023-02-21T08:11:49;77641.28;;;-142.75;100.00
41632;BME280;37452;51.938;4.624;2023-02-21T08:14:14;77659.00;;;-142.75;100.00
41632;BME280;37452;51.938;4.624;2023-02-21T08:16:39;77659.00;;;-142.75;100.00
41632;BME280;37452;51.938;4.624;2023-02-21T08:19:05;77649.16;;;-142.75;100.00
41632;BME280;37452;51.938;4.624;2023-02-21T08:21:30;77655.06;;;-142.75;100.00
41632;BME280;37452;51.938;4.624;2023-02-21T08:23:55;77655.06;;;-142.75;100.00
41632;BME280;37452;51.938;4.624;2023-02-21T08:26:21;77664.91;;;-142.75;100.00
41632;BME280;37452;51.938;4.624;2023-02-21T08:28:47;77657.03;;;-142.75;100.00
41632;BME280;37452;51.938;4.624;2023-02-21T08:31:12;77655.06;;;-142.75;100.00
41632;BME280;37452;51.938;4.624;2023-02-21T08:33:37;77653.09;;;-142.75;100.00
41632;BME280;37452;51.938;4.624;2023-02-21T08:36:03;77653.09;;;-142.75;100.00
41632;BME280;37452;51.938;4.624;2023-02-21T08:38:29;77659.00;;;-142.75;100.00
41632;BME280;37452;51.938;4.624;2023-02-21T08:40:54;77655.06;;;-142.75;100.00
41632;BME280;37452;51.938;4.624;2023-02-21T08:43:20;77662.94;;;-142.75;100.00
41632;BME280;37452;51.938;4.624;2023-02-21T08:45:45;77659.00;;;-142.75;100.00
41632;BME280;37452;51.938;4.624;2023-02-21T08:48:10;77659.00;;;-142.75;100.00
41632;BME280;37452;51.938;4.624;2023-02-21T08:50:36;77645.22;;;-142.75;100.00
41632;BME280;37452;51.938;4.624;2023-02-21T08:53:02;77643.25;;;-142.75;100.00
41632;BME280;37452;51.938;4.624;2023-02-21T08:55:27;77637.34;;;-142.75;100.00
41632;BME280;37452;51.938;4.624;2023-02-21T08:57:53;77623.56;;;-142.75;100.00
41632;BME280;37452;51.938;4.624;2023-02-21T09:00:21;77629.47;;;-142.75;100.00
41632;BME280;37452;51.938;4.624;2023-02-21T09:02:53;77645.22;;;-142.75;100.00
41632;BME280;37452;51.938;4.624;2023-02-21T09:05:22;77623.56;;;-142.75;100.00
41632;BME280;37452;51.938;4.624;2023-02-21T09:07:50;77635.38;;;-142.75;100.00
41632;BME280;37452;51.938;4.624;2023-02-21T09:10:19;77633.41;;;-142.75;100.00
41632;BME280;37452;51.938;4.624;2023-02-21T09:12:44;77629.47;;;-142.75;100.00
41632;BME280;37452;51.938;4.624;2023-02-21T09:15:10;77621.59;;;-142.75;100.00
41632;BME280;37452;51.938;4.624;2023-02-21T09:17:38;77633.41;;;-142.75;100.00
41632;BME280;37452;51.938;4.624;2023-02-21T09:20:06;77609.78;;;-142.75;100.00
41632;BME280;37452;51.938;4.624;2023-02-21T09:22:32;77613.72;;;-142.75;100.00
41632;BME280;37452;51.938;4.624;2023-02-21T09:24:59;77611.75;;;-142.75;100.00
41632;BME280;37452;51.938;4.624;2023-02-21T09:27:24;77623.56;;;-142.75;100.00
41632;BME280;37452;51.938;4.624;2023-02-21T09:30:05;77621.59;;;-142.75;100.00
41632;BME280;37452;51.938;4.624;2023-02-21T09:32:31;77613.72;;;-142.75;100.00
41632;BME280;37452;51.938;4.624;2023-02-21T09:34:57;77625.53;;;-142.75;100.00
41632;BME280;37452;51.938;4.624;2023-02-21T09:37:23;77623.56;;;-142.75;100.00
41632;BME280;37452;51.938;4.624;2023-02-21T09:39:48;77623.56;;;-142.75;100.00
41632;BME280;37452;51.938;4.624;2023-02-21T09:42:16;77617.66;;;-142.75;100.00
41632;BME280;37452;51.938;4.624;2023-02-21T09:44:43;77613.72;;;-142.75;100.00
41632;BME280;37452;51.938;4.624;2023-02-21T09:47:16;77594.03;;;-142.75;100.00
41632;BME280;37452;51.938;4.624;2023-02-21T09:49:45;77603.88;;;-142.75;100.00
41632;BME280;37452;51.938;4.624;2023-02-21T09:52:35;77597.97;;;-142.75;100.00
41632;BME280;37452;51.938;4.624;2023-02-21T09:55:07;77617.66;;;-142.75;100.00
41632;BME280;37452;51.938;4.624;2023-02-21T09:57:33;77613.72;;;-142.75;100.00
41632;BME280;37452;51.938;4.624;2023-02-21T09:59:59;77609.78;;;-142.75;100.00
41632;BME280;37452;51.938;4.624;2023-02-21T10:02:52;77607.81;;;-142.75;100.00
41632;BME280;37452;51.938;4.624;2023-02-21T10:05:35;77603.88;;;-142.75;100.00
41632;BME280;37452;51.938;4.624;2023-02-21T10:08:25;77597.97;;;-142.75;100.00
41632;BME280;37452;51.938;4.624;2023-02-21T10:11:02;77605.84;;;-142.75;100.00
41632;BME280;37452;51.938;4.624;2023-02-21T10:13:43;77605.84;;;-142.75;100.00
41632;BME280;37452;51.938;4.624;2023-02-21T10:19:20;77594.03;;;-142.75;100.00
41632;BME280;37452;51.938;4.624;2023-02-21T10:21:49;77594.03;;;-142.75;100.00
41632;BME280;37452;51.938;4.624;2023-02-21T10:24:21;77588.13;;;-142.75;100.00
41632;BME280;37452;51.938;4.624;2023-02-21T10:27:07;77582.22;;;-142.75;100.00
41632;BME280;37452;51.938;4.624;2023-02-21T10:29:44;77588.13;;;-142.75;100.00
41632;BME280;37452;51.938;4.624;2023-02-21T10:32:11;77594.03;;;-142.75;100.00
41632;BME280;37452;51.938;4.624;2023-02-21T10:34:37;77588.13;;;-142.75;100.00
41632;BME280;37452;51.938;4.624;2023-02-21T10:37:14;77597.97;;;-142.75;100.00
41632;BME280;37452;51.938;4.624;2023-02-21T10:39:48;77586.16;;;-142.75;100.00
41632;BME280;37452;51.938;4.624;2023-02-21T10:44:52;77597.97;;;-142.75;100.00
41632;BME280;37452;51.938;4.624;2023-02-21T10:47:22;77578.28;;;-142.75;100.00
41632;BME280;37452;51.938;4.624;2023-02-21T10:50:05;77590.09;;;-142.75;100.00
41632;BME280;37452;51.938;4.624;2023-02-21T10:52:57;77582.22;;;-142.75;100.00
41632;BME280;37452;51.938;4.624;2023-02-21T10:55:22;77590.09;;;-142.75;100.00
41632;BME280;37452;51.938;4.624;2023-02-21T10:57:58;77546.78;;;-142.75;100.00
41632;BME280;37452;51.938;4.624;2023-02-21T11:00:36;77566.47;;;-142.75;100.00
41632;BME280;37452;51.938;4.624;2023-02-21T11:03:22;77540.88;;;-142.75;100.00
41632;BME280;37452;51.938;4.624;2023-02-21T11:05:53;77544.81;;;-142.75;100.00
41632;BME280;37452;51.938;4.624;2023-02-21T11:08:38;77540.88;;;-142.75;100.00
41632;BME280;37452;51.938;4.624;2023-02-21T11:11:04;77550.72;;;-142.75;100.00
41632;BME280;37452;51.938;4.624;2023-02-21T11:13:31;77558.59;;;-142.75;100.00
41632;BME280;37452;51.938;4.624;2023-02-21T11:16:26;77556.63;;;-142.75;100.00
41632;BME280;37452;51.938;4.624;2023-02-21T11:19:05;77546.78;;;-142.75;100.00
41632;BME280;37452;51.938;4.624;2023-02-21T11:21:31;77544.81;;;-142.75;100.00
41632;BME280;37452;51.938;4.624;2023-02-21T11:23:59;77550.72;;;-142.75;100.00
41632;BME280;37452;51.938;4.624;2023-02-21T11:26:35;77552.69;;;-142.75;100.00
41632;BME280;37452;51.938;4.624;2023-02-21T11:29:08;77546.78;;;-142.75;100.00
41632;BME280;37452;51.938;4.624;2023-02-21T11:31:35;77550.72;;;-142.75;100.00
41632;BME280;37452;51.938;4.624;2023-02-21T11:34:06;77554.66;;;-142.75;100.00
41632;BME280;37452;51.938;4.624;2023-02-21T11:36:35;77544.81;;;-142.75;100.00
41632;BME280;37452;51.938;4.624;2023-02-21T11:39:16;77513.31;;;-142.75;100.00
41632;BME280;37452;51.938;4.624;2023-02-21T11:41:52;77511.34;;;-142.75;100.00
41632;BME280;37452;51.938;4.624;2023-02-21T11:44:22;77513.31;;;-142.75;100.00
41632;BME280;37452;51.938;4.624;2023-02-21T11:46:50;77519.22;;;-142.75;100.00
41632;BME280;37452;51.938;4.624;2023-02-21T11:52:01;77507.41;;;-142.75;100.00
41632;BME280;37452;51.938;4.624;2023-02-21T11:54:28;77533.00;;;-142.75;100.00
41632;BME280;37452;51.938;4.624;2023-02-21T11:57:16;77507.41;;;-142.75;100.00
41632;BME280;37452;51.938;4.624;2023-02-21T12:02:56;77503.47;;;-142.75;100.00
41632;BME280;37452;51.938;4.624;2023-02-21T12:19:25;77497.56;;;-142.75;100.00
41632;BME280;37452;51.938;4.624;2023-02-21T12:27:47;77501.50;;;-142.75;100.00
41632;BME280;37452;51.938;4.624;2023-02-21T12:36:09;77501.50;;;-142.75;100.00
41632;BME280;37452;51.938;4.624;2023-02-21T12:44:23;77499.53;;;-142.75;100.00
41632;BME280;37452;51.938;4.624;2023-02-21T12:46:56;77497.56;;;-142.75;100.00
41632;BME280;37452;51.938;4.624;2023-02-21T12:49:39;77503.47;;;-142.75;100.00
41632;BME280;37452;51.938;4.624;2023-02-21T12:52:18;77501.50;;;-142.75;100.00
41632;BME280;37452;51.938;4.624;2023-02-21T12:55:19;77527.09;;;-142.75;100.00
41632;BME280;37452;51.938;4.624;2023-02-21T12:58:11;77507.41;;;-142.75;100.00
41632;BME280;37452;51.938;4.624;2023-02-21T13:00:46;77517.25;;;-142.75;100.00
41632;BME280;37452;51.938;4.624;2023-02-21T13:06:01;77523.16;;;-142.75;100.00
41632;BME280;37452;51.938;4.624;2023-02-21T13:14:40;77501.50;;;-142.75;100.00
41632;BME280;37452;51.938;4.624;2023-02-21T13:17:14;77505.44;;;-142.75;100.00
41632;BME280;37452;51.938;4.624;2023-02-21T13:19:44;77487.72;;;-142.75;100.00
41632;BME280;37452;51.938;4.624;2023-02-21T13:25:35;77503.47;;;-142.75;100.00
41632;BME280;37452;51.938;4.624;2023-02-21T13:28:26;77503.47;;;-142.75;100.00
41632;BME280;37452;51.938;4.624;2023-02-21T13:30:58;77499.53;;;-142.75;100.00
41632;BME280;37452;51.938;4.624;2023-02-21T13:33:42;77503.47;;;-142.75;100.00
41632;BME280;37452;51.938;4.624;2023-02-21T13:36:24;77499.53;;;-142.75;100.00
41632;BME280;37452;51.938;4.624;2023-02-21T13:39:00;77515.28;;;-142.75;100.00
41632;BME280;37452;51.938;4.624;2023-02-21T13:41:29;77525.13;;;-142.75;100.00
41632;BME280;37452;51.938;4.624;2023-02-21T13:43:59;77521.19;;;-142.75;100.00
41632;BME280;37452;51.938;4.624;2023-02-21T14:08:26;77586.16;;;-142.75;100.00
41632;BME280;37452;51.938;4.624;2023-02-21T14:16:16;77566.47;;;-142.75;100.00
41632;BME280;37452;51.938;4.624;2023-02-21T14:19:07;77560.56;;;-142.75;100.00
41632;BME280;37452;51.938;4.624;2023-02-21T14:24:15;77574.34;;;-142.75;100.00
41632;BME280;37452;51.938;4.624;2023-02-21T14:26:53;77609.78;;;-142.75;100.00
41632;BME280;37452;51.938;4.624;2023-02-21T14:29:41;77596.00;;;-142.75;100.00
41632;BME280;37452;51.938;4.624;2023-02-21T14:48:52;77668.84;;;-142.75;100.00
41632;BME280;37452;51.938;4.624;2023-02-21T14:51:47;77637.34;;;-142.75;100.00
41632;BME280;37452;51.938;4.624;2023-02-21T15:02:42;77592.06;;;-142.75;100.00
41632;BME280;37452;51.938;4.624;2023-02-21T15:05:24;77578.28;;;-142.75;100.00
41632;BME280;37452;51.938;4.624;2023-02-21T15:08:01;77562.53;;;-142.75;100.00
41632;BME280;37452;51.938;4.624;2023-02-21T15:10:31;77570.41;;;-142.75;100.00
41632;BME280;37452;51.938;4.624;2023-02-21T15:13:02;77562.53;;;-142.75;100.00
41632;BME280;37452;51.938;4.624;2023-02-21T15:15:32;77564.50;;;-142.75;100.00